sensor_id;sensor_type;location;lat;lon;timestamp;pressure;altitude;pressure_sealevel;temperature;humidity
7962;BME280;4026;43.652;24.906;2023-05-22T00:00:32;99042.16;;;15.05;100.00
7962;BME280;4026;43.652;24.906;2023-05-22T00:03:01;99043.94;;;15.05;100.00
7962;BME280;4026;43.652;24.906;2023-05-22T00:05:29;99045.97;;;15.01;100.00
7962;BME280;4026;43.652;24.906;2023-05-22T00:07:56;99044.22;;;14.92;100.00
7962;BME280;4026;43.652;24.906;2023-05-22T00:10:23;99036.66;;;14.90;100.00
7962;BME280;4026;43.652;24.906;2023-05-22T00:12:50;99034.19;;;14.89;100.00
7962;BME280;4026;43.652;24.906;2023-05-22T00:15:16;99038.41;;;14.90;100.00
7962;BME280;4026;43.652;24.906;2023-05-22T00:17:43;99032.72;;;14.96;100.00
7962;BME280;4026;43.652;24.906;2023-05-22T00:20:12;99034.59;;;14.94;100.00
7962;BME280;4026;43.652;24.906;2023-05-22T00:22:39;99030.53;;;14.91;100.00
7962;BME280;4026;43.652;24.906;2023-05-22T00:25:07;99032.72;;;14.86;100.00
7962;BME280;4026;43.652;24.906;2023-05-22T00:27:34;99029.50;;;14.84;100.00
7962;BME280;4026;43.652;24.906;2023-05-22T00:30:01;99038.69;;;14.87;100.00
7962;BME280;4026;43.652;24.906;2023-05-22T00:32:28;99038.13;;;14.83;100.00
7962;BME280;4026;43.652;24.906;2023-05-22T00:34:55;99024.63;;;14.71;100.00
7962;BME280;4026;43.652;24.906;2023-05-22T00:37:23;99024.66;;;14.62;100.00
7962;BME280;4026;43.652;24.906;2023-05-22T00:39:50;99026.53;;;14.50;100.00
7962;BME280;4026;43.652;24.906;2023-05-22T00:42:17;99023.97;;;14.50;100.00
7962;BME280;4026;43.652;24.906;2023-05-22T00:44:44;99027.34;;;14.50;100.00
7962;BME280;4026;43.652;24.906;2023-05-22T00:47:12;99028.41;;;14.48;100.00
7962;BME280;4026;43.652;24.906;2023-05-22T00:49:39;99024.22;;;14.47;100.00
7962;BME280;4026;43.652;24.906;2023-05-22T00:52:07;99023.56;;;14.35;100.00
7962;BME280;4026;43.652;24.906;2023-05-22T00:54:36;99022.63;;;14.26;100.00
7962;BME280;4026;43.652;24.906;2023-05-22T00:57:03;99032.75;;;14.28;100.00
7962;BME280;4026;43.652;24.906;2023-05-22T00:59:31;99031.69;;;14.40;100.00
7962;BME280;4026;43.652;24.906;2023-05-22T01:01:58;99040.50;;;14.57;100.00
7962;BME280;4026;43.652;24.906;2023-05-22T01:04:25;99043.75;;;14.69;100.00
7962;BME280;4026;43.652;24.906;2023-05-22T01:06:53;99045.50;;;14.68;100.00
7962;BME280;4026;43.652;24.906;2023-05-22T01:09:20;99047.13;;;14.69;100.00
7962;BME280;4026;43.652;24.906;2023-05-22T01:11:54;99044.28;;;14.73;100.00
7962;BME280;4026;43.652;24.906;2023-05-22T01:14:30;99035.88;;;14.70;100.00
7962;BME280;4026;43.652;24.906;2023-05-22T01:17:03;99040.06;;;14.71;100.00
7962;BME280;4026;43.652;24.906;2023-05-22T01:19:54;99034.53;;;14.66;100.00
7962;BME280;4026;43.652;24.906;2023-05-22T01:22:47;99034.69;;;14.55;100.00
7962;BME280;4026;43.652;24.906;2023-05-22T01:25:39;99026.69;;;14.58;100.00
7962;BME280;4026;43.652;24.906;2023-05-22T01:28:32;99030.59;;;14.62;100.00
7962;BME280;4026;43.652;24.906;2023-05-22T01:31:04;99027.91;;;14.54;100.00
7962;BME280;4026;43.652;24.906;2023-05-22T01:33:39;99024.13;;;14.58;100.00
7962;BME280;4026;43.652;24.906;2023-05-22T01:36:08;99029.09;;;14.50;100.00
7962;BME280;4026;43.652;24.906;2023-05-22T01:38:36;99029.38;;;14.47;100.00
7962;BME280;4026;43.652;24.906;2023-05-22T01:41:03;99028.41;;;14.48;100.00
7962;BME280;4026;43.652;24.906;2023-05-22T01:43:30;99027.09;;;14.44;100.00
7962;BME280;4026;43.652;24.906;2023-05-22T01:45:58;99034.66;;;14.16;100.00
7962;BME280;4026;43.652;24.906;2023-05-22T01:48:27;99025.47;;;14.23;100.00
7962;BME280;4026;43.652;24.906;2023-05-22T01:50:55;99025.06;;;14.18;100.00
7962;BME280;4026;43.652;24.906;2023-05-22T01:53:27;99032.50;;;14.21;100.00
7962;BME280;4026;43.652;24.906;2023-05-22T01:55:58;99032.22;;;14.24;100.00
7962;BME280;4026;43.652;24.906;2023-05-22T01:58:33;99026.81;;;14.27;100.00
7962;BME280;4026;43.652;24.906;2023-05-22T02:01:03;99041.72;;;14.14;100.00
7962;BME280;4026;43.652;24.906;2023-05-22T02:03:34;99038.34;;;14.14;100.00
7962;BME280;4026;43.652;24.906;2023-05-22T02:06:04;99039.94;;;14.05;100.00
7962;BME280;4026;43.652;24.906;2023-05-22T02:08:32;99045.47;;;14.00;100.00
7962;BME280;4026;43.652;24.906;2023-05-22T02:11:00;99043.31;;;13.96;100.00
7962;BME280;4026;43.652;24.906;2023-05-22T02:13:28;99040.59;;;13.88;100.00
7962;BME280;4026;43.652;24.906;2023-05-22T02:15:56;99036.00;;;13.91;100.00
7962;BME280;4026;43.652;24.906;2023-05-22T02:18:25;99040.59;;;13.88;100.00
7962;BME280;4026;43.652;24.906;2023-05-22T02:20:55;99041.25;;;13.90;100.00
7962;BME280;4026;43.652;24.906;2023-05-22T02:23:22;99042.22;;;13.89;100.00
7962;BME280;4026;43.652;24.906;2023-05-22T02:25:49;99043.03;;;13.89;100.00
7962;BME280;4026;43.652;24.906;2023-05-22T02:28:16;99042.50;;;13.86;100.00
7962;BME280;4026;43.652;24.906;2023-05-22T02:30:43;99036.66;;;13.84;100.00
7962;BME280;4026;43.652;24.906;2023-05-22T02:33:10;99037.34;;;13.76;100.00
7962;BME280;4026;43.652;24.906;2023-05-22T02:35:36;99039.06;;;13.75;100.00
7962;BME280;4026;43.652;24.906;2023-05-22T02:38:05;99036.78;;;13.72;100.00
7962;BME280;4026;43.652;24.906;2023-05-22T02:40:31;99038.69;;;13.70;100.00
7962;BME280;4026;43.652;24.906;2023-05-22T02:42:58;99040.97;;;13.73;100.00
7962;BME280;4026;43.652;24.906;2023-05-22T02:45:25;99039.75;;;13.77;100.00
7962;BME280;4026;43.652;24.906;2023-05-22T02:47:52;99036.25;;;13.78;100.00
7962;BME280;4026;43.652;24.906;2023-05-22T02:50:19;99032.31;;;13.74;100.00
7962;BME280;4026;43.652;24.906;2023-05-22T02:52:45;99037.88;;;13.79;100.00
7962;BME280;4026;43.652;24.906;2023-05-22T02:55:15;99030.00;;;13.71;100.00
7962;BME280;4026;43.652;24.906;2023-05-22T02:57:42;99039.22;;;13.74;100.00
7962;BME280;4026;43.652;24.906;2023-05-22T03:00:09;99033.81;;;13.77;100.00
7962;BME280;4026;43.652;24.906;2023-05-22T03:02:36;99037.88;;;13.79;100.00
7962;BME280;4026;43.652;24.906;2023-05-22T03:05:03;99039.66;;;13.79;100.00
7962;BME280;4026;43.652;24.906;2023-05-22T03:07:30;99036.50;;;13.75;100.00
7962;BME280;4026;43.652;24.906;2023-05-22T03:09:59;99041.94;;;13.82;100.00
7962;BME280;4026;43.652;24.906;2023-05-22T03:12:27;99038.16;;;13.76;100.00
7962;BME280;4026;43.652;24.906;2023-05-22T03:14:54;99031.63;;;13.72;100.00
7962;BME280;4026;43.652;24.906;2023-05-22T03:17:20;99028.69;;;13.77;100.00
7962;BME280;4026;43.652;24.906;2023-05-22T03:19:47;99027.19;;;13.74;100.00
7962;BME280;4026;43.652;24.906;2023-05-22T03:22:14;99025.97;;;13.78;100.00
7962;BME280;4026;43.652;24.906;2023-05-22T03:24:42;99030.44;;;13.76;100.00
7962;BME280;4026;43.652;24.906;2023-05-22T03:27:13;99024.06;;;13.80;100.00
7962;BME280;4026;43.652;24.906;2023-05-22T03:29:41;99028.94;;;13.84;100.00
7962;BME280;4026;43.652;24.906;2023-05-22T03:32:08;99027.59;;;13.79;100.00
7962;BME280;4026;43.652;24.906;2023-05-22T03:34:35;99036.50;;;13.75;100.00
7962;BME280;4026;43.652;24.906;2023-05-22T03:37:02;99029.91;;;13.82;100.00
7962;BME280;4026;43.652;24.906;2023-05-22T03:39:28;99033.56;;;13.90;100.00
7962;BME280;4026;43.652;24.906;2023-05-22T03:41:55;99029.53;;;13.97;100.00
7962;BME280;4026;43.652;24.906;2023-05-22T03:44:23;99028.28;;;14.01;100.00
7962;BME280;4026;43.652;24.906;2023-05-22T03:46:51;99028.97;;;14.03;100.00
7962;BME280;4026;43.652;24.906;2023-05-22T03:49:18;99039.13;;;14.04;100.00
7962;BME280;4026;43.652;24.906;2023-05-22T03:51:45;99037.91;;;14.09;100.00
7962;BME280;4026;43.652;24.906;2023-05-22T03:54:11;99037.91;;;14.18;100.00
7962;BME280;4026;43.652;24.906;2023-05-22T03:56:38;99045.47;;;13.91;100.00
7962;BME280;4026;43.652;24.906;2023-05-22T03:59:05;99042.78;;;14.12;100.00
7962;BME280;4026;43.652;24.906;2023-05-22T04:01:32;99044.13;;;14.06;100.00
7962;BME280;4026;43.652;24.906;2023-05-22T04:04:00;99040.06;;;14.13;100.00
7962;BME280;4026;43.652;24.906;2023-05-22T04:06:29;99046.97;;;14.13;100.00
7962;BME280;4026;43.652;24.906;2023-05-22T04:08:57;99044.13;;;14.16;100.00
7962;BME280;4026;43.652;24.906;2023-05-22T04:11:24;99044.16;;;14.25;100.00
7962;BME280;4026;43.652;24.906;2023-05-22T04:13:51;99045.22;;;14.13;100.00
7962;BME280;4026;43.652;24.906;2023-05-22T04:16:18;99039.13;;;14.43;100.00
7962;BME280;4026;43.652;24.906;2023-05-22T04:18:45;99043.19;;;14.36;100.00
7962;BME280;4026;43.652;24.906;2023-05-22T04:21:13;99054.72;;;14.61;100.00
7962;BME280;4026;43.652;24.906;2023-05-22T04:23:40;99049.44;;;14.73;100.00
7962;BME280;4026;43.652;24.906;2023-05-22T04:26:08;99051.84;;;14.84;100.00
7962;BME280;4026;43.652;24.906;2023-05-22T04:28:35;99047.31;;;15.05;100.00
7962;BME280;4026;43.652;24.906;2023-05-22T04:31:02;99053.78;;;15.09;100.00
7962;BME280;4026;43.652;24.906;2023-05-22T04:33:30;99049.44;;;15.20;100.00
7962;BME280;4026;43.652;24.906;2023-05-22T04:35:58;99058.97;;;15.00;100.00
7962;BME280;4026;43.652;24.906;2023-05-22T04:38:28;99060.06;;;15.07;100.00
7962;BME280;4026;43.652;24.906;2023-05-22T04:40:54;99060.59;;;15.10;100.00
7962;BME280;4026;43.652;24.906;2023-05-22T04:43:22;99068.03;;;15.41;100.00
7962;BME280;4026;43.652;24.906;2023-05-22T04:45:51;99071.50;;;15.59;100.00
7962;BME280;4026;43.652;24.906;2023-05-22T04:48:18;99065.16;;;15.81;100.00
7962;BME280;4026;43.652;24.906;2023-05-22T04:50:45;99073.81;;;15.90;100.00
7962;BME280;4026;43.652;24.906;2023-05-22T04:53:12;99072.63;;;16.02;100.00
7962;BME280;4026;43.652;24.906;2023-05-22T04:55:40;99071.09;;;16.27;100.00
7962;BME280;4026;43.652;24.906;2023-05-22T04:58:07;99069.72;;;16.33;100.00
7962;BME280;4026;43.652;24.906;2023-05-22T05:00:34;99073.06;;;16.51;100.00
7962;BME280;4026;43.652;24.906;2023-05-22T05:03:01;99077.56;;;16.85;100.00
7962;BME280;4026;43.652;24.906;2023-05-22T05:05:28;99083.91;;;17.17;100.00
7962;BME280;4026;43.652;24.906;2023-05-22T05:07:55;99071.88;;;17.42;100.00
7962;BME280;4026;43.652;24.906;2023-05-22T05:10:21;99082.16;;;17.68;100.00
7962;BME280;4026;43.652;24.906;2023-05-22T05:12:50;99084.84;;;17.50;100.00
7962;BME280;4026;43.652;24.906;2023-05-22T05:15:16;99083.69;;;17.79;100.00
7962;BME280;4026;43.652;24.906;2023-05-22T05:17:43;99078.28;;;17.98;100.00
7962;BME280;4026;43.652;24.906;2023-05-22T05:20:11;99084.72;;;18.02;100.00
7962;BME280;4026;43.652;24.906;2023-05-22T05:22:38;99088.63;;;17.98;100.00
7962;BME280;4026;43.652;24.906;2023-05-22T05:25:06;99078.75;;;18.02;100.00
7962;BME280;4026;43.652;24.906;2023-05-22T05:27:33;99087.53;;;18.33;100.00
7962;BME280;4026;43.652;24.906;2023-05-22T05:30:01;99086.59;;;18.59;100.00
7962;BME280;4026;43.652;24.906;2023-05-22T05:32:29;99093.69;;;18.82;100.00
7962;BME280;4026;43.652;24.906;2023-05-22T05:34:56;99091.44;;;18.87;100.00
7962;BME280;4026;43.652;24.906;2023-05-22T05:37:22;99099.78;;;19.21;100.00
7962;BME280;4026;43.652;24.906;2023-05-22T05:39:50;99103.56;;;19.58;100.00
7962;BME280;4026;43.652;24.906;2023-05-22T05:42:17;99110.03;;;19.71;100.00
7962;BME280;4026;43.652;24.906;2023-05-22T05:44:44;99106.97;;;19.98;99.30
7962;BME280;4026;43.652;24.906;2023-05-22T05:47:12;99107.63;;;20.00;96.88
7962;BME280;4026;43.652;24.906;2023-05-22T05:49:39;99114.09;;;20.04;95.01
7962;BME280;4026;43.652;24.906;2023-05-22T05:52:06;99107.19;;;20.20;94.29
7962;BME280;4026;43.652;24.906;2023-05-22T05:54:33;99112.03;;;20.23;94.72
7962;BME280;4026;43.652;24.906;2023-05-22T05:57:00;99114.72;;;20.06;93.59
7962;BME280;4026;43.652;24.906;2023-05-22T05:59:26;99103.16;;;20.40;95.06
7962;BME280;4026;43.652;24.906;2023-05-22T06:01:56;99112.41;;;20.66;93.38
7962;BME280;4026;43.652;24.906;2023-05-22T06:04:24;99110.50;;;20.60;92.74
7962;BME280;4026;43.652;24.906;2023-05-22T06:06:52;99109.44;;;20.69;91.14
7962;BME280;4026;43.652;24.906;2023-05-22T06:09:19;99112.78;;;20.31;88.99
7962;BME280;4026;43.652;24.906;2023-05-22T06:11:46;99104.41;;;20.67;88.30
7962;BME280;4026;43.652;24.906;2023-05-22T06:14:13;99107.97;;;20.89;89.57
7962;BME280;4026;43.652;24.906;2023-05-22T06:16:40;99117.47;;;21.12;87.94
7962;BME280;4026;43.652;24.906;2023-05-22T06:19:07;99119.28;;;21.26;88.76
7962;BME280;4026;43.652;24.906;2023-05-22T06:21:35;99120.00;;;21.20;88.93
7962;BME280;4026;43.652;24.906;2023-05-22T06:24:02;99117.91;;;21.38;90.39
7962;BME280;4026;43.652;24.906;2023-05-22T06:26:29;99115.19;;;21.46;87.43
7962;BME280;4026;43.652;24.906;2023-05-22T06:28:56;99109.81;;;21.63;88.52
7962;BME280;4026;43.652;24.906;2023-05-22T06:31:23;99112.38;;;21.78;84.48
7962;BME280;4026;43.652;24.906;2023-05-22T06:33:50;99108.41;;;21.97;83.11
7962;BME280;4026;43.652;24.906;2023-05-22T06:36:17;99111.41;;;22.15;85.06
7962;BME280;4026;43.652;24.906;2023-05-22T06:38:45;99117.44;;;22.01;80.95
7962;BME280;4026;43.652;24.906;2023-05-22T06:41:12;99106.53;;;21.90;78.86
7962;BME280;4026;43.652;24.906;2023-05-22T06:43:38;99104.53;;;21.92;82.55
7962;BME280;4026;43.652;24.906;2023-05-22T06:46:05;99103.69;;;22.07;83.96
7962;BME280;4026;43.652;24.906;2023-05-22T06:48:33;99105.44;;;22.00;83.76
7962;BME280;4026;43.652;24.906;2023-05-22T06:51:00;99111.22;;;22.17;80.56
7962;BME280;4026;43.652;24.906;2023-05-22T06:53:28;99105.94;;;22.10;80.47
7962;BME280;4026;43.652;24.906;2023-05-22T06:55:56;99106.16;;;22.30;80.88
7962;BME280;4026;43.652;24.906;2023-05-22T06:58:23;99103.50;;;22.45;76.47
7962;BME280;4026;43.652;24.906;2023-05-22T07:00:50;99114.41;;;22.33;78.93
7962;BME280;4026;43.652;24.906;2023-05-22T07:03:18;99113.28;;;22.21;81.59
7962;BME280;4026;43.652;24.906;2023-05-22T07:05:45;99107.81;;;22.59;82.54
7962;BME280;4026;43.652;24.906;2023-05-22T07:08:12;99111.31;;;22.66;78.93
7962;BME280;4026;43.652;24.906;2023-05-22T07:10:39;99113.91;;;22.45;79.46
7962;BME280;4026;43.652;24.906;2023-05-22T07:13:07;99122.91;;;22.21;78.20
7962;BME280;4026;43.652;24.906;2023-05-22T07:15:34;99114.78;;;22.30;79.28
7962;BME280;4026;43.652;24.906;2023-05-22T07:18:01;99105.13;;;22.46;77.76
7962;BME280;4026;43.652;24.906;2023-05-22T07:20:27;99102.72;;;22.72;76.43
7962;BME280;4026;43.652;24.906;2023-05-22T07:22:54;99105.91;;;22.46;80.17
7962;BME280;4026;43.652;24.906;2023-05-22T07:25:22;99106.81;;;22.60;78.07
7962;BME280;4026;43.652;24.906;2023-05-22T07:27:49;99111.00;;;22.82;81.60
7962;BME280;4026;43.652;24.906;2023-05-22T07:30:17;99106.41;;;22.85;78.90
7962;BME280;4026;43.652;24.906;2023-05-22T07:32:44;99104.63;;;22.85;75.89
7962;BME280;4026;43.652;24.906;2023-05-22T07:35:11;99100.75;;;23.02;76.77
7962;BME280;4026;43.652;24.906;2023-05-22T07:37:38;99112.91;;;23.23;76.38
7962;BME280;4026;43.652;24.906;2023-05-22T07:40:06;99111.75;;;23.33;77.65
7962;BME280;4026;43.652;24.906;2023-05-22T07:42:34;99110.81;;;23.40;76.37
7962;BME280;4026;43.652;24.906;2023-05-22T07:45:00;99105.72;;;23.25;78.70
7962;BME280;4026;43.652;24.906;2023-05-22T07:47:29;99105.44;;;23.48;77.78
7962;BME280;4026;43.652;24.906;2023-05-22T07:49:56;99106.75;;;23.72;73.00
7962;BME280;4026;43.652;24.906;2023-05-22T07:52:22;99112.50;;;23.61;75.04
7962;BME280;4026;43.652;24.906;2023-05-22T07:54:49;99109.59;;;23.78;74.47
7962;BME280;4026;43.652;24.906;2023-05-22T07:57:16;99119.56;;;23.67;73.72
7962;BME280;4026;43.652;24.906;2023-05-22T07:59:43;99112.69;;;24.01;71.28
7962;BME280;4026;43.652;24.906;2023-05-22T08:02:09;99120.06;;;23.91;71.72
7962;BME280;4026;43.652;24.906;2023-05-22T08:04:38;99111.66;;;24.02;73.49
7962;BME280;4026;43.652;24.906;2023-05-22T08:07:04;99116.06;;;23.95;75.38
7962;BME280;4026;43.652;24.906;2023-05-22T08:09:31;99117.28;;;23.92;74.60
7962;BME280;4026;43.652;24.906;2023-05-22T08:11:58;99126.69;;;23.87;72.69
7962;BME280;4026;43.652;24.906;2023-05-22T08:14:25;99121.75;;;24.12;70.81
7962;BME280;4026;43.652;24.906;2023-05-22T08:16:52;99117.28;;;23.99;68.71
7962;BME280;4026;43.652;24.906;2023-05-22T08:19:19;99122.56;;;24.26;67.10
7962;BME280;4026;43.652;24.906;2023-05-22T08:21:47;99119.25;;;23.84;68.48
7962;BME280;4026;43.652;24.906;2023-05-22T08:24:14;99106.25;;;24.10;73.03
7962;BME280;4026;43.652;24.906;2023-05-22T08:26:40;99116.53;;;24.25;73.87
7962;BME280;4026;43.652;24.906;2023-05-22T08:29:08;99100.50;;;24.35;71.47
7962;BME280;4026;43.652;24.906;2023-05-22T08:31:34;99108.91;;;24.37;68.28
7962;BME280;4026;43.652;24.906;2023-05-22T08:34:01;99113.88;;;24.05;73.52
7962;BME280;4026;43.652;24.906;2023-05-22T08:36:29;99112.63;;;23.88;72.98
7962;BME280;4026;43.652;24.906;2023-05-22T08:38:59;99102.16;;;23.75;75.69
7962;BME280;4026;43.652;24.906;2023-05-22T08:41:26;99100.75;;;23.79;77.04
7962;BME280;4026;43.652;24.906;2023-05-22T08:43:53;99103.63;;;23.97;72.83
7962;BME280;4026;43.652;24.906;2023-05-22T08:46:22;99107.66;;;24.06;69.60
7962;BME280;4026;43.652;24.906;2023-05-22T08:48:50;99103.81;;;23.89;74.05
7962;BME280;4026;43.652;24.906;2023-05-22T08:51:18;99101.66;;;24.06;74.30
7962;BME280;4026;43.652;24.906;2023-05-22T08:53:49;99105.31;;;24.38;74.53
7962;BME280;4026;43.652;24.906;2023-05-22T08:56:18;99108.97;;;24.50;71.54
7962;BME280;4026;43.652;24.906;2023-05-22T08:58:45;99113.38;;;24.83;66.76
7962;BME280;4026;43.652;24.906;2023-05-22T09:01:12;99104.50;;;25.04;67.79
7962;BME280;4026;43.652;24.906;2023-05-22T09:03:40;99101.66;;;25.12;64.50
7962;BME280;4026;43.652;24.906;2023-05-22T09:06:07;99102.31;;;24.88;66.05
7962;BME280;4026;43.652;24.906;2023-05-22T09:08:36;99104.50;;;24.97;69.41
7962;BME280;4026;43.652;24.906;2023-05-22T09:11:03;99100.66;;;25.06;70.70
7962;BME280;4026;43.652;24.906;2023-05-22T09:13:31;99097.28;;;24.99;69.85
7962;BME280;4026;43.652;24.906;2023-05-22T09:15:59;99101.25;;;25.22;61.12
7962;BME280;4026;43.652;24.906;2023-05-22T09:18:33;99092.34;;;25.49;64.52
7962;BME280;4026;43.652;24.906;2023-05-22T09:21:01;99096.75;;;26.01;63.86
7962;BME280;4026;43.652;24.906;2023-05-22T09:23:28;99098.00;;;26.23;64.71
7962;BME280;4026;43.652;24.906;2023-05-22T09:25:56;99094.94;;;25.94;65.87
7962;BME280;4026;43.652;24.906;2023-05-22T09:28:23;99105.13;;;25.71;59.80
7962;BME280;4026;43.652;24.906;2023-05-22T09:30:53;99095.09;;;25.61;66.37
7962;BME280;4026;43.652;24.906;2023-05-22T09:33:21;99094.22;;;25.74;61.06
7962;BME280;4026;43.652;24.906;2023-05-22T09:35:51;99095.84;;;25.75;64.14
7962;BME280;4026;43.652;24.906;2023-05-22T09:38:20;99091.00;;;25.79;61.19
7962;BME280;4026;43.652;24.906;2023-05-22T09:40:51;99094.44;;;25.07;62.58
7962;BME280;4026;43.652;24.906;2023-05-22T09:43:18;99088.19;;;25.08;65.22
7962;BME280;4026;43.652;24.906;2023-05-22T09:45:46;99089.16;;;25.34;66.54
7962;BME280;4026;43.652;24.906;2023-05-22T09:48:15;99084.25;;;25.58;70.42
7962;BME280;4026;43.652;24.906;2023-05-22T09:50:46;99083.03;;;25.53;67.32
7962;BME280;4026;43.652;24.906;2023-05-22T09:53:15;99079.84;;;25.51;66.63
7962;BME280;4026;43.652;24.906;2023-05-22T09:55:43;99087.84;;;25.57;66.01
7962;BME280;4026;43.652;24.906;2023-05-22T09:58:17;99087.44;;;25.60;61.87
7962;BME280;4026;43.652;24.906;2023-05-22T10:00:45;99084.66;;;25.48;60.51
7962;BME280;4026;43.652;24.906;2023-05-22T10:03:14;99083.16;;;25.07;66.43
7962;BME280;4026;43.652;24.906;2023-05-22T10:05:46;99085.31;;;25.43;67.25
7962;BME280;4026;43.652;24.906;2023-05-22T10:08:16;99084.59;;;25.68;63.25
7962;BME280;4026;43.652;24.906;2023-05-22T10:10:49;99086.31;;;25.42;64.04
7962;BME280;4026;43.652;24.906;2023-05-22T10:13:17;99074.72;;;25.12;67.31
7962;BME280;4026;43.652;24.906;2023-05-22T10:15:46;99072.50;;;25.08;67.73
7962;BME280;4026;43.652;24.906;2023-05-22T10:18:15;99066.38;;;25.41;71.24
7962;BME280;4026;43.652;24.906;2023-05-22T10:20:42;99065.66;;;25.72;70.13
7962;BME280;4026;43.652;24.906;2023-05-22T10:23:11;99068.34;;;25.97;63.28
7962;BME280;4026;43.652;24.906;2023-05-22T10:25:39;99069.06;;;26.11;65.10
7962;BME280;4026;43.652;24.906;2023-05-22T10:28:06;99066.00;;;25.83;64.77
7962;BME280;4026;43.652;24.906;2023-05-22T10:30:40;99066.84;;;25.83;69.80
7962;BME280;4026;43.652;24.906;2023-05-22T10:33:18;99069.09;;;26.05;67.84
7962;BME280;4026;43.652;24.906;2023-05-22T10:35:49;99073.56;;;26.04;63.56
7962;BME280;4026;43.652;24.906;2023-05-22T10:38:39;99055.53;;;25.76;66.92
7962;BME280;4026;43.652;24.906;2023-05-22T10:41:11;99063.03;;;26.11;67.17
7962;BME280;4026;43.652;24.906;2023-05-22T10:43:40;99053.19;;;26.31;67.01
7962;BME280;4026;43.652;24.906;2023-05-22T10:46:10;99055.47;;;26.53;59.50
7962;BME280;4026;43.652;24.906;2023-05-22T10:48:38;99053.72;;;26.40;64.26
7962;BME280;4026;43.652;24.906;2023-05-22T10:51:06;99047.78;;;26.26;63.51
7962;BME280;4026;43.652;24.906;2023-05-22T10:53:33;99042.78;;;26.25;63.06
7962;BME280;4026;43.652;24.906;2023-05-22T10:56:09;99043.41;;;26.20;60.52
7962;BME280;4026;43.652;24.906;2023-05-22T10:58:36;99039.25;;;26.06;61.20
7962;BME280;4026;43.652;24.906;2023-05-22T11:01:13;99034.69;;;26.26;64.98
7962;BME280;4026;43.652;24.906;2023-05-22T11:03:52;99036.50;;;26.01;66.46
7962;BME280;4026;43.652;24.906;2023-05-22T11:06:33;99033.47;;;26.04;64.54
7962;BME280;4026;43.652;24.906;2023-05-22T11:09:16;99036.56;;;25.87;64.87
7962;BME280;4026;43.652;24.906;2023-05-22T11:11:43;99020.50;;;26.09;64.05
7962;BME280;4026;43.652;24.906;2023-05-22T11:14:10;99025.81;;;26.27;64.86
7962;BME280;4026;43.652;24.906;2023-05-22T11:16:37;99024.53;;;26.36;62.13
7962;BME280;4026;43.652;24.906;2023-05-22T11:19:13;99029.56;;;26.63;62.26
7962;BME280;4026;43.652;24.906;2023-05-22T11:21:45;99021.84;;;26.68;59.36
7962;BME280;4026;43.652;24.906;2023-05-22T11:24:14;99022.56;;;26.75;58.15
7962;BME280;4026;43.652;24.906;2023-05-22T11:26:42;99012.81;;;26.82;60.73
7962;BME280;4026;43.652;24.906;2023-05-22T11:29:09;99017.34;;;26.94;58.29
7962;BME280;4026;43.652;24.906;2023-05-22T11:31:36;99016.81;;;27.03;55.26
7962;BME280;4026;43.652;24.906;2023-05-22T11:34:03;98996.97;;;26.52;58.54
7962;BME280;4026;43.652;24.906;2023-05-22T11:36:37;98993.34;;;26.28;60.26
7962;BME280;4026;43.652;24.906;2023-05-22T11:39:05;98999.19;;;26.30;61.29
7962;BME280;4026;43.652;24.906;2023-05-22T11:41:33;98993.94;;;26.30;58.75
7962;BME280;4026;43.652;24.906;2023-05-22T11:44:00;98991.25;;;26.12;58.74
7962;BME280;4026;43.652;24.906;2023-05-22T11:46:27;98986.38;;;26.40;63.97
7962;BME280;4026;43.652;24.906;2023-05-22T11:48:55;98976.25;;;26.44;57.09
7962;BME280;4026;43.652;24.906;2023-05-22T11:51:22;98975.19;;;26.52;59.81
7962;BME280;4026;43.652;24.906;2023-05-22T11:53:51;98970.03;;;26.63;58.67
7962;BME280;4026;43.652;24.906;2023-05-22T11:56:19;98965.38;;;26.66;54.52
7962;BME280;4026;43.652;24.906;2023-05-22T11:58:47;98969.84;;;26.65;61.01
7962;BME280;4026;43.652;24.906;2023-05-22T12:01:14;98969.16;;;26.26;56.73
7962;BME280;4026;43.652;24.906;2023-05-22T12:03:41;98958.53;;;26.21;60.29
7962;BME280;4026;43.652;24.906;2023-05-22T12:06:08;98963.91;;;26.26;58.37
7962;BME280;4026;43.652;24.906;2023-05-22T12:08:36;98950.72;;;25.89;57.23
7962;BME280;4026;43.652;24.906;2023-05-22T12:11:04;98951.28;;;26.41;59.54
7962;BME280;4026;43.652;24.906;2023-05-22T12:13:32;98950.19;;;26.49;58.78
7962;BME280;4026;43.652;24.906;2023-05-22T12:15:59;98945.75;;;26.50;57.00
7962;BME280;4026;43.652;24.906;2023-05-22T12:18:26;98955.19;;;26.32;57.29
7962;BME280;4026;43.652;24.906;2023-05-22T12:20:59;98947.47;;;26.37;57.59
7962;BME280;4026;43.652;24.906;2023-05-22T12:23:27;98947.81;;;25.97;57.50
7962;BME280;4026;43.652;24.906;2023-05-22T12:25:59;98954.34;;;25.88;57.18
7962;BME280;4026;43.652;24.906;2023-05-22T12:28:30;98956.38;;;25.55;56.62
7962;BME280;4026;43.652;24.906;2023-05-22T12:30:57;98954.94;;;25.59;58.21
7962;BME280;4026;43.652;24.906;2023-05-22T12:33:27;98951.88;;;25.30;60.36
7962;BME280;4026;43.652;24.906;2023-05-22T12:35:54;98944.19;;;25.35;60.10
7962;BME280;4026;43.652;24.906;2023-05-22T12:38:24;98935.66;;;24.43;70.69
7962;BME280;4026;43.652;24.906;2023-05-22T12:40:51;98941.91;;;24.02;79.26
7962;BME280;4026;43.652;24.906;2023-05-22T12:43:19;98943.28;;;23.85;81.31
7962;BME280;4026;43.652;24.906;2023-05-22T12:45:48;98938.03;;;23.58;81.24
7962;BME280;4026;43.652;24.906;2023-05-22T12:48:15;98948.25;;;23.53;83.14
7962;BME280;4026;43.652;24.906;2023-05-22T12:50:42;98946.03;;;23.37;84.40
7962;BME280;4026;43.652;24.906;2023-05-22T12:53:09;98942.00;;;23.34;83.07
7962;BME280;4026;43.652;24.906;2023-05-22T12:55:36;98939.22;;;23.49;80.35
7962;BME280;4026;43.652;24.906;2023-05-22T12:58:04;98941.63;;;23.50;78.36
7962;BME280;4026;43.652;24.906;2023-05-22T13:00:36;98937.22;;;23.64;78.04
7962;BME280;4026;43.652;24.906;2023-05-22T13:03:04;98932.84;;;23.85;76.57
7962;BME280;4026;43.652;24.906;2023-05-22T13:05:31;98926.84;;;24.04;75.84
7962;BME280;4026;43.652;24.906;2023-05-22T13:07:58;98928.03;;;24.22;73.57
7962;BME280;4026;43.652;24.906;2023-05-22T13:10:25;98925.63;;;24.13;74.66
7962;BME280;4026;43.652;24.906;2023-05-22T13:12:52;98922.41;;;24.11;75.43